createdAt,value
2022-08-04T00:01:20.169Z,4.30
2022-08-04T00:04:03.572Z,5.00
2022-08-04T00:06:57.925Z,4.60
2022-08-04T00:09:32.997Z,4.80
2022-08-04T00:12:04.714Z,4.40
2022-08-04T00:14:37.455Z,4.80
2022-08-04T00:17:10.187Z,4.80
2022-08-04T00:19:46.057Z,4.70
2022-08-04T00:22:21.597Z,4.80
2022-08-04T00:24:52.105Z,4.80
2022-08-04T00:27:25.255Z,5.10
2022-08-04T00:29:55.649Z,4.90
2022-08-04T00:32:34.545Z,4.30
2022-08-04T00:35:05.827Z,4.90
2022-08-04T00:37:39.186Z,4.60
2022-08-04T00:40:44.479Z,5.10
2022-08-04T00:43:30.535Z,5.00
2022-08-04T00:46:19.299Z,4.90
2022-08-04T00:49:09.257Z,5.50
2022-08-04T00:51:42.546Z,4.90
2022-08-04T00:54:37.353Z,5.40
2022-08-04T00:57:34.408Z,4.70
2022-08-04T01:00:12.301Z,5.60
2022-08-04T01:03:00.944Z,5.50
2022-08-04T01:05:50.040Z,5.50
2022-08-04T01:08:41.535Z,5.40
2022-08-04T01:11:29.142Z,5.40
2022-08-04T01:14:14.808Z,5.70
2022-08-04T01:16:55.194Z,5.60
2022-08-04T01:19:44.149Z,6.00
2022-08-04T01:22:17.415Z,5.40
2022-08-04T01:24:50.862Z,4.70
2022-08-04T01:27:59.155Z,5.40
2022-08-04T01:30:35.266Z,5.20
2022-08-04T01:33:10.757Z,5.70
2022-08-04T01:35:50.311Z,5.50
2022-08-04T01:41:05.239Z,5.20
2022-08-04T01:43:38.766Z,5.60
2022-08-04T01:46:12.485Z,5.40
2022-08-04T01:48:46.389Z,5.30
2022-08-04T01:51:16.804Z,5.30
2022-08-04T01:53:47.057Z,5.40
2022-08-04T01:56:17.995Z,5.50
2022-08-04T01:58:48.620Z,5.40
2022-08-04T02:01:18.907Z,5.50
2022-08-04T02:04:21.128Z,5.50
2022-08-04T02:06:52.109Z,5.20
2022-08-04T02:09:54.651Z,5.20
2022-08-04T02:13:01.106Z,5.80
2022-08-04T02:15:41.491Z,5.00
2022-08-04T02:18:25.530Z,5.20
2022-08-04T02:21:06.049Z,4.80
2022-08-04T02:23:39.123Z,5.60
2022-08-04T02:26:22.255Z,5.20
2022-08-04T02:28:56.215Z,6.10
2022-08-04T02:31:46.086Z,5.40
2022-08-04T02:34:38.227Z,5.60
2022-08-04T02:37:11.899Z,5.30
2022-08-04T02:39:48.693Z,5.70
2022-08-04T02:42:21.116Z,5.80
2022-08-04T02:44:53.438Z,5.10
2022-08-04T02:48:23.687Z,5.50
2022-08-04T02:50:29.042Z,6.30
2022-08-04T02:53:04.864Z,6.20
2022-08-04T02:55:50.878Z,5.20
2022-08-04T02:58:33.577Z,4.60
2022-08-04T03:01:05.153Z,5.40
2022-08-04T03:03:47.515Z,5.30
2022-08-04T03:06:23.777Z,5.60
2022-08-04T03:09:23.615Z,4.90
2022-08-04T03:12:31.697Z,5.90
2022-08-04T03:15:23.489Z,5.20
2022-08-04T03:18:19.924Z,5.50
2022-08-04T03:21:17.806Z,5.50
2022-08-04T03:23:57.340Z,5.10
2022-08-04T03:26:37.907Z,5.80
2022-08-04T03:29:55.706Z,5.40
2022-08-04T03:32:57.776Z,5.20
2022-08-04T03:35:27.988Z,5.00
2022-08-04T03:38:27.615Z,5.00
2022-08-04T03:41:03.903Z,5.20
2022-08-04T03:43:57.691Z,5.60
2022-08-04T03:46:53.013Z,5.10
2022-08-04T03:49:41.986Z,6.10
2022-08-04T03:52:53.754Z,5.70
2022-08-04T03:55:37.496Z,5.40
2022-08-04T03:58:30.491Z,5.50
2022-08-04T04:02:02.150Z,5.90
2022-08-04T04:04:39.604Z,5.70
2022-08-04T04:08:01.854Z,5.70
2022-08-04T04:10:58.706Z,5.40
2022-08-04T04:14:06.244Z,5.30
2022-08-04T04:17:00.773Z,5.30
2022-08-04T04:20:03.226Z,5.90
2022-08-04T04:22:44.270Z,6.10
2022-08-04T04:25:41.306Z,5.60
2022-08-04T04:28:44.555Z,6.10
2022-08-04T04:31:24.889Z,6.10
2022-08-04T04:34:15.380Z,5.70
2022-08-04T04:37:39.639Z,5.20
2022-08-04T04:40:41.237Z,5.90
2022-08-04T04:43:52.776Z,5.20
2022-08-04T04:46:36.713Z,5.50
2022-08-04T04:49:44.276Z,6.00
2022-08-04T04:52:54.384Z,5.50
2022-08-04T04:55:45.132Z,5.60
2022-08-04T04:58:53.435Z,5.60
2022-08-04T05:02:08.813Z,6.00
2022-08-04T05:05:19.587Z,6.00
2022-08-04T05:08:43.063Z,6.00
2022-08-04T05:11:50.847Z,6.20
2022-08-04T05:14:41.518Z,6.30
2022-08-04T05:17:34.853Z,6.60
2022-08-04T05:20:23.736Z,6.30
2022-08-04T05:23:13.845Z,6.00
2022-08-04T05:26:09.328Z,6.20
2022-08-04T05:28:50.860Z,6.60
2022-08-04T05:32:00.913Z,6.90
2022-08-04T05:34:41.986Z,7.30
2022-08-04T05:37:23.860Z,7.40
2022-08-04T05:40:18.745Z,7.10
2022-08-04T05:42:50.627Z,6.40
2022-08-04T05:45:22.413Z,6.20
2022-08-04T05:47:55.572Z,6.90
2022-08-04T05:50:27.515Z,6.50
2022-08-04T05:53:08.085Z,6.90
2022-08-04T05:55:58.117Z,7.50
2022-08-04T05:58:35.101Z,7.50
2022-08-04T06:01:07.890Z,7.30
2022-08-04T06:03:40.606Z,7.60
2022-08-04T06:06:13.178Z,7.20
2022-08-04T06:08:43.547Z,7.40
2022-08-04T06:11:16.181Z,7.60
2022-08-04T06:13:52.825Z,7.30
2022-08-04T06:16:31.085Z,7.30
2022-08-04T06:20:04.056Z,7.90
2022-08-04T06:22:01.638Z,8.00
2022-08-04T06:24:38.086Z,8.00
2022-08-04T06:27:10.569Z,8.30
2022-08-04T06:29:51.476Z,8.70
2022-08-04T06:32:33.640Z,8.50
2022-08-04T06:35:08.348Z,8.60
2022-08-04T06:37:43.588Z,7.50
2022-08-04T06:40:31.813Z,7.30
2022-08-04T06:43:06.507Z,7.60
2022-08-04T06:45:40.265Z,7.40
2022-08-04T06:48:14.284Z,7.50
2022-08-04T06:51:32.823Z,7.40
2022-08-04T06:53:38.115Z,8.10
2022-08-04T06:56:10.562Z,8.00
2022-08-04T06:58:42.185Z,7.80
2022-08-04T07:01:18.803Z,7.40
2022-08-04T07:03:50.863Z,7.60
2022-08-04T07:06:25.912Z,7.80
2022-08-04T07:08:56.996Z,7.40
2022-08-04T07:11:28.061Z,7.90
2022-08-04T07:14:10.305Z,8.00
2022-08-04T07:16:43.767Z,7.40
2022-08-04T07:19:18.632Z,8.20
2022-08-04T07:22:17.579Z,7.70
2022-08-04T07:24:41.681Z,7.60
2022-08-04T07:27:47.596Z,7.70
2022-08-04T07:30:32.264Z,7.90
2022-08-04T07:33:04.329Z,7.90
2022-08-04T07:36:06.038Z,7.20
2022-08-04T07:38:27.711Z,7.70
2022-08-04T07:40:58.579Z,8.50
2022-08-04T07:43:29.500Z,9.60
2022-08-04T07:46:00.244Z,7.80
2022-08-04T07:48:41.814Z,7.30
2022-08-04T07:51:38.809Z,7.30
2022-08-04T07:54:15.524Z,7.40
2022-08-04T07:56:46.603Z,5.80
2022-08-04T07:59:18.433Z,6.90
2022-08-04T08:01:49.595Z,7.20
2022-08-04T08:04:20.607Z,6.30
2022-08-04T08:06:50.752Z,7.00
2022-08-04T08:09:22.833Z,7.70
2022-08-04T08:12:36.518Z,6.90
2022-08-04T08:15:01.422Z,5.80
2022-08-04T08:17:32.268Z,6.20
2022-08-04T08:20:34.056Z,6.60
2022-08-04T08:23:06.185Z,6.00
2022-08-04T08:25:36.742Z,7.50
2022-08-04T08:28:23.676Z,6.70
2022-08-04T08:31:21.153Z,6.30
2022-08-04T08:34:32.190Z,6.20
2022-08-04T08:41:14.051Z,7.20
2022-08-04T08:44:09.348Z,6.20
2022-08-04T08:47:19.113Z,6.00
2022-08-04T08:50:16.974Z,5.90
2022-08-04T08:53:24.714Z,6.00
2022-08-04T08:56:40.756Z,5.60
2022-08-04T08:59:33.831Z,5.40
2022-08-04T09:02:17.876Z,5.50
2022-08-04T09:05:16.516Z,6.30
2022-08-04T09:07:47.303Z,6.10
2022-08-04T09:10:29.593Z,6.20
2022-08-04T09:13:39.168Z,5.90
2022-08-04T09:16:19.341Z,5.90
2022-08-04T09:19:08.926Z,5.40
2022-08-04T09:22:29.943Z,5.40
2022-08-04T09:25:22.539Z,5.20
2022-08-04T09:28:09.619Z,5.70
2022-08-04T09:34:06.716Z,5.60
2022-08-04T09:36:59.227Z,5.10
2022-08-04T09:39:57.112Z,5.20
2022-08-04T09:42:44.405Z,5.10
2022-08-04T09:45:42.464Z,4.60
2022-08-04T09:48:37.660Z,4.90
2022-08-04T09:51:57.560Z,5.30
2022-08-04T09:54:54.945Z,5.10
2022-08-04T09:57:52.040Z,5.20
2022-08-04T10:00:41.390Z,4.90
2022-08-04T10:03:19.910Z,5.10
2022-08-04T10:06:06.383Z,5.50
2022-08-04T10:09:15.465Z,5.10
2022-08-04T10:12:23.720Z,5.10
2022-08-04T10:15:00.596Z,4.80
2022-08-04T10:17:43.529Z,5.60
2022-08-04T10:20:53.990Z,5.80
2022-08-04T10:23:55.213Z,5.50
2022-08-04T10:26:44.941Z,5.30
2022-08-04T10:29:51.041Z,5.50
2022-08-04T10:32:27.131Z,5.80
2022-08-04T10:35:42.365Z,5.20
2022-08-04T10:38:31.590Z,4.90
2022-08-04T10:41:33.670Z,5.30
2022-08-04T10:44:41.929Z,5.20
2022-08-04T10:47:38.641Z,5.20
2022-08-04T10:50:34.373Z,5.10
2022-08-04T10:53:32.634Z,5.60
2022-08-04T10:56:19.775Z,5.50
2022-08-04T10:59:16.839Z,5.30
2022-08-04T11:02:02.563Z,5.20
2022-08-04T11:04:43.555Z,5.00
2022-08-04T11:07:15.530Z,5.20
2022-08-04T11:09:47.592Z,5.20
2022-08-04T11:12:28.510Z,5.50
2022-08-04T11:15:09.373Z,5.50
2022-08-04T11:18:16.506Z,5.60
2022-08-04T11:21:01.877Z,5.10
2022-08-04T11:23:37.157Z,4.90
2022-08-04T11:26:26.844Z,5.10
2022-08-04T11:29:05.977Z,5.60
2022-08-04T11:31:49.763Z,5.30
2022-08-04T11:34:29.117Z,5.30
2022-08-04T11:37:17.528Z,5.10
2022-08-04T11:39:55.117Z,4.80
2022-08-04T11:42:30.852Z,5.80
2022-08-04T11:45:09.230Z,4.60
2022-08-04T11:48:03.717Z,4.90
2022-08-04T11:50:34.413Z,5.00
2022-08-04T11:53:20.084Z,5.30
2022-08-04T11:56:36.990Z,5.10
2022-08-04T11:59:16.743Z,5.00
2022-08-04T12:02:20.970Z,4.90
2022-08-04T12:05:32.396Z,5.00
2022-08-04T12:08:22.472Z,5.00
2022-08-04T12:11:35.859Z,4.70
2022-08-04T12:14:42.550Z,5.40
2022-08-04T12:18:08.375Z,5.30
2022-08-04T12:20:47.745Z,5.40
2022-08-04T12:23:26.310Z,5.10
2022-08-04T12:30:58.872Z,5.20
2022-08-04T12:33:17.798Z,5.40
2022-08-04T12:36:29.742Z,4.60
2022-08-04T12:39:17.080Z,5.20
2022-08-04T12:42:03.164Z,4.90
2022-08-04T12:44:39.001Z,5.30
2022-08-04T12:47:27.478Z,5.00
2022-08-04T12:53:55.251Z,4.70
2022-08-04T12:56:36.963Z,4.90
2022-08-04T12:59:14.875Z,4.60
2022-08-04T13:02:07.303Z,4.50
2022-08-04T13:04:51.528Z,4.70
2022-08-04T13:07:29.457Z,4.90
2022-08-04T13:10:02.804Z,4.80
2022-08-04T13:12:35.189Z,4.80
2022-08-04T13:15:47.307Z,5.00
2022-08-04T13:18:29.308Z,5.10
2022-08-04T13:21:20.894Z,4.50
2022-08-04T13:24:10.489Z,5.20
2022-08-04T13:27:03.650Z,4.30
2022-08-04T13:29:58.948Z,5.20
2022-08-04T13:32:32.527Z,4.50
2022-08-04T13:35:12.423Z,4.80
2022-08-04T13:37:44.461Z,4.80
2022-08-04T13:40:17.488Z,5.20
2022-08-04T13:42:49.781Z,5.00
2022-08-04T13:45:25.074Z,4.60
2022-08-04T13:48:20.212Z,4.70
2022-08-04T13:51:05.477Z,5.00
2022-08-04T13:53:37.696Z,4.90
2022-08-04T13:56:11.818Z,4.50
2022-08-04T13:58:47.227Z,5.00
2022-08-04T14:01:21.154Z,5.00
2022-08-04T14:04:32.090Z,4.90
2022-08-04T14:07:21.013Z,4.50
2022-08-04T14:10:03.339Z,4.90
2022-08-04T14:12:38.935Z,5.40
2022-08-04T14:16:02.443Z,5.10
2022-08-04T14:18:34.899Z,5.40
2022-08-04T14:21:19.305Z,4.90
2022-08-04T14:23:59.463Z,4.90
2022-08-04T14:26:37.429Z,4.80
2022-08-04T14:29:27.480Z,4.90
2022-08-04T14:32:11.511Z,4.40
2022-08-04T14:34:47.062Z,6.00
2022-08-04T14:37:20.856Z,4.80
2022-08-04T14:40:07.935Z,4.70
2022-08-04T14:42:44.650Z,4.90
2022-08-04T14:45:53.883Z,6.20
2022-08-04T14:48:25.818Z,4.30
2022-08-04T14:50:56.614Z,4.90
2022-08-04T14:53:29.905Z,5.00
2022-08-04T14:56:02.857Z,4.40
2022-08-04T14:58:39.200Z,4.30
2022-08-04T15:01:16.802Z,4.70
2022-08-04T15:03:50.782Z,5.00
2022-08-04T15:06:27.162Z,5.10
2022-08-04T15:09:05.562Z,4.60
2022-08-04T15:11:53.586Z,4.60
2022-08-04T15:14:50.546Z,4.80
2022-08-04T15:17:47.547Z,5.00
2022-08-04T15:20:44.633Z,4.40
2022-08-04T15:23:42.459Z,4.70
2022-08-04T15:26:39.473Z,4.60
2022-08-04T15:29:59.223Z,4.30
2022-08-04T15:32:54.374Z,4.80
2022-08-04T15:35:38.786Z,4.70
2022-08-04T15:43:55.532Z,4.70
2022-08-04T15:47:10.655Z,4.10
2022-08-04T15:56:23.892Z,4.40
2022-08-04T15:59:27.036Z,4.90
2022-08-04T16:02:38.681Z,4.80
2022-08-04T16:05:18.933Z,4.60
2022-08-04T16:08:05.132Z,4.50
2022-08-04T16:10:51.513Z,4.70
2022-08-04T16:13:27.505Z,4.20
2022-08-04T16:16:03.204Z,4.60
2022-08-04T16:18:37.831Z,4.80
2022-08-04T16:21:56.111Z,4.50
2022-08-04T16:24:57.912Z,4.00
2022-08-04T16:27:50.411Z,4.50
2022-08-04T16:30:35.664Z,4.30
2022-08-04T16:33:21.745Z,4.40
2022-08-04T16:36:23.904Z,4.00
2022-08-04T16:39:19.642Z,4.70
2022-08-04T16:42:44.853Z,4.40
2022-08-04T16:45:19.427Z,4.10
2022-08-04T16:47:56.045Z,4.70
2022-08-04T16:51:04.535Z,4.40
2022-08-04T16:54:04.769Z,4.10
2022-08-04T16:57:07.533Z,7.50
2022-08-04T17:00:22.595Z,4.00
2022-08-04T17:03:24.417Z,4.10
2022-08-04T17:06:20.183Z,4.00
2022-08-04T17:09:17.626Z,3.90
2022-08-04T17:12:14.504Z,4.70
2022-08-04T17:15:00.177Z,4.20
2022-08-04T17:18:04.013Z,4.20
2022-08-04T17:21:36.234Z,4.60
2022-08-04T17:28:19.304Z,11.30
2022-08-04T17:30:52.579Z,5.00
2022-08-04T17:33:54.910Z,5.20
2022-08-04T17:36:37.421Z,4.40
2022-08-04T17:39:24.811Z,4.90
2022-08-04T17:41:59.814Z,4.80
2022-08-04T17:44:44.466Z,6.40
2022-08-04T17:47:38.118Z,5.60
2022-08-04T17:50:55.236Z,5.00
2022-08-04T17:54:01.643Z,4.70
2022-08-04T17:56:52.155Z,4.50
2022-08-04T17:59:55.589Z,5.10
2022-08-04T18:02:32.413Z,5.10
2022-08-04T18:05:11.392Z,4.70
2022-08-04T18:08:39.724Z,4.40
2022-08-04T18:10:56.134Z,4.70
2022-08-04T18:13:28.699Z,4.60
2022-08-04T18:16:30.565Z,4.90
2022-08-04T18:19:24.394Z,4.50
2022-08-04T18:25:50.440Z,4.90
2022-08-04T18:28:45.506Z,4.90
2022-08-04T18:31:39.972Z,6.10
2022-08-04T18:34:29.356Z,4.90
2022-08-04T18:42:14.465Z,5.20
2022-08-04T18:45:05.610Z,5.20
2022-08-04T18:47:58.867Z,5.10
2022-08-04T18:54:32.224Z,5.30
2022-08-04T18:57:32.331Z,5.40
2022-08-04T19:00:25.446Z,5.40
2022-08-04T19:03:22.877Z,5.10
2022-08-04T19:06:08.545Z,5.90
2022-08-04T19:09:00.513Z,5.40
2022-08-04T19:11:54.418Z,5.30
2022-08-04T19:20:51.967Z,5.60
2022-08-04T19:32:13.970Z,5.50
2022-08-04T19:35:57.808Z,5.70
2022-08-04T19:38:44.486Z,6.20
2022-08-04T19:41:19.503Z,5.70
2022-08-04T19:44:24.151Z,5.30
2022-08-04T19:47:30.792Z,6.90
2022-08-04T19:50:16.907Z,6.20
2022-08-04T19:52:52.462Z,5.90
2022-08-04T19:55:37.561Z,5.50
2022-08-04T19:58:16.603Z,5.90
2022-08-04T20:00:52.890Z,5.90
2022-08-04T20:04:10.469Z,5.80
2022-08-04T20:06:54.315Z,5.60
2022-08-04T20:09:37.457Z,6.10
2022-08-04T20:12:35.834Z,6.20
2022-08-04T20:15:21.816Z,5.90
2022-08-04T20:18:07.697Z,5.80
2022-08-04T20:21:54.443Z,6.20
2022-08-04T20:24:41.459Z,6.20
2022-08-04T20:27:51.838Z,6.10
2022-08-04T20:30:48.142Z,6.20
2022-08-04T20:33:40.482Z,6.40
2022-08-04T20:36:49.873Z,7.50
2022-08-04T20:39:53.700Z,6.70
2022-08-04T20:42:47.305Z,6.00
2022-08-04T20:45:56.309Z,5.90
2022-08-04T20:48:56.306Z,7.10
2022-08-04T20:51:52.285Z,6.80
2022-08-04T20:54:35.206Z,6.30
2022-08-04T20:57:12.252Z,6.10
2022-08-04T21:00:14.404Z,6.50
2022-08-04T21:03:11.137Z,6.80
2022-08-04T21:06:08.112Z,6.90
2022-08-04T21:09:15.381Z,6.90
2022-08-04T21:15:57.873Z,7.10
2022-08-04T21:18:47.187Z,7.00
2022-08-04T21:21:46.103Z,6.60
2022-08-04T21:24:50.490Z,6.50
2022-08-04T21:27:48.292Z,6.90
2022-08-04T21:30:54.103Z,6.10
2022-08-04T21:33:53.182Z,6.90
2022-08-04T21:36:49.175Z,8.20
2022-08-04T21:39:59.052Z,7.30
2022-08-04T21:42:53.649Z,6.30
2022-08-04T21:45:41.035Z,7.20
2022-08-04T21:48:48.601Z,6.70
2022-08-04T21:51:59.972Z,6.70
2022-08-04T21:54:58.102Z,6.80
2022-08-04T21:57:58.727Z,6.80
2022-08-04T22:00:56.013Z,6.50
2022-08-04T22:03:57.087Z,6.30
2022-08-04T22:06:55.096Z,6.90
2022-08-04T22:10:02.487Z,6.80
2022-08-04T22:13:00.280Z,6.90
2022-08-04T22:16:05.730Z,6.60
2022-08-04T22:19:03.249Z,6.60
2022-08-04T22:22:05.148Z,7.10
2022-08-04T22:25:12.313Z,6.80
2022-08-04T22:28:10.941Z,6.80
2022-08-04T22:31:23.167Z,6.80
2022-08-04T22:34:20.893Z,7.30
2022-08-04T22:37:35.985Z,6.70
2022-08-04T22:40:40.275Z,6.70
2022-08-04T22:43:37.886Z,7.30
2022-08-04T22:46:35.035Z,6.60
2022-08-04T22:49:32.646Z,6.60
2022-08-04T22:52:31.972Z,6.60
2022-08-04T22:55:57.481Z,7.00
2022-08-04T22:58:51.107Z,6.90
2022-08-04T23:01:58.946Z,7.00
2022-08-04T23:04:57.948Z,6.90
2022-08-04T23:07:56.138Z,7.10
2022-08-04T23:10:57.940Z,7.60
2022-08-04T23:13:55.066Z,7.40
2022-08-04T23:16:53.359Z,7.40
2022-08-04T23:19:58.160Z,7.70
2022-08-04T23:22:57.210Z,6.60
2022-08-04T23:26:07.500Z,7.00
2022-08-04T23:29:05.867Z,6.60
2022-08-04T23:32:03.012Z,6.70
2022-08-04T23:35:00.063Z,6.50
2022-08-04T23:38:00.078Z,6.70
2022-08-04T23:41:15.716Z,6.60
2022-08-04T23:44:17.608Z,6.60
2022-08-04T23:48:15.709Z,6.50
2022-08-04T23:50:40.303Z,6.70
2022-08-04T23:54:01.584Z,6.50
2022-08-04T23:57:08.798Z,6.30
